Main page
METAR-TAF:

METAR-TAF

Airports :

Oil platform

Heimdal, Norway

latitude: 59-34-12N, longitude: 2-13-48E, elevation: 10 m

Current weather observation

The report was made 19 minutes ago, at 20:50 UTC
Wind 30 kt from the South
Temperature 9°C
Humidity 93%
Pressure 1020 hPa
Visibility 10 km or more

METAR: ENHM 202050Z AUTO 17030KT 9999NDV NCD 09/08 Q1020 W10/S5

Time: 23:09 (21:09 UTC)

Forecast

The report was made 10 hours and 9 minutes ago, at 11:00 UTC
Forecast valid from 20 at 12 UTC to 20 at 17 UTC
Wind 30 kt from the South
Visibility 10 km or more
no clouds below 1500 m and no cumulonimbus

TAF: ENHM 201100Z 2012/2017 17030KT CAVOK

Weather observations and forecasts of more than 4000 airports (METAR and TAF reports).

The available stations are represented by yellow and red dots on the map.

Hover mouse over dot to see the name of the station.

Then click to see weather observations and forecasts.

To change the map : click on the green buttons with a black cross to zoom in, on the green button with a dash to zoom out, or on the green arrows for adjacent maps.


METAR-TAF: